^^
Meteo Knjazevac Station Historical Data
Daily Summary for August 29, 2021 Units:  Metric    English   Both
Daily Weekly Monthly Yearly Custom
  High: Low: Average:
Temperature: 37.7 °C 19.4 °C 28 °C
Dew Point: 25 °C 17.7 °C 20.6 °C
Humidity: 91% 35% 68%
Wind Speed: 9.7km/h 0km/h 3.1km/h
Wind Gust: 16.1km/h - -
Wind- - SW
Pressure: 1017.8 hPa 1014.1 hPa -
Precipitation: 0 mm    
Historical Graphs
 
 
Tabular Data for August 29, 2021
Time Temperature Dew Point Pressure Wind Wind Speed Wind Gust Humidity Rainfall Rate (Hourly) solar Conditions
00:00 23.6 °C 20.7 °C 1017.2 hPa West 3.2 km/h 4.8 km/h 84% 0 mm 0 W/m2
00:10 23.4 °C 20.6 °C 1017.2 hPa Calm   3.2 km/h 84% 0 mm 0 W/m2
00:20 23.2 °C 20.6 °C 1017.2 hPa NNW 1.6 km/h 3.2 km/h 85% 0 mm 0 W/m2
00:30 23 °C 20.3 °C 1017.2 hPa NW 1.6 km/h 3.2 km/h 85% 0 mm 0 W/m2
00:40 23 °C 20.6 °C 1016.8 hPa North 1.6 km/h 3.2 km/h 86% 0 mm 0 W/m2
00:50 22.8 °C 20.3 °C 1017.2 hPa West 4.8 km/h 8 km/h 86% 0 mm 0 W/m2
01:00 22.6 °C 20.5 °C 1017.2 hPa WNW 1.6 km/h 8 km/h 88% 0 mm 0 W/m2
01:10 22.4 °C 20.1 °C 1017.2 hPa Calm   4.8 km/h 87% 0 mm 0 W/m2
01:20 22.3 °C 20.2 °C 1017.2 hPa Calm   4.8 km/h 88% 0 mm 0 W/m2
01:30 22.1 °C 20 °C 1016.8 hPa Calm   4.8 km/h 88% 0 mm 0 W/m2
01:40 22.1 °C 20 °C 1016.8 hPa Calm   3.2 km/h 88% 0 mm 0 W/m2
01:50 22 °C 20.1 °C 1016.8 hPa Calm   3.2 km/h 89% 0 mm 0 W/m2
02:00 22 °C 20.1 °C 1016.8 hPa Calm   3.2 km/h 89% 0 mm 0 W/m2
02:10 22.1 °C 19.7 °C 1016.8 hPa East 3.2 km/h 11.3 km/h 86% 0 mm 0 W/m2
02:20 22 °C 19.9 °C 1017.2 hPa SW 3.2 km/h 9.7 km/h 88% 0 mm 0 W/m2
02:30 21.8 °C 19.7 °C 1017.2 hPa NW 3.2 km/h 16.1 km/h 88% 0 mm 0 W/m2
02:40 21.9 °C 19.8 °C 1016.8 hPa NNE 1.6 km/h 4.8 km/h 88% 0 mm 0 W/m2
02:50 21.9 °C 19.8 °C 1017.2 hPa NW 1.6 km/h 8 km/h 88% 0 mm 0 W/m2
03:00 21.8 °C 19.7 °C 1016.8 hPa WNW 1.6 km/h 3.2 km/h 88% 0 mm 0 W/m2
03:10 21.7 °C 19.6 °C 1016.8 hPa Calm   6.4 km/h 88% 0 mm 0 W/m2
03:20 21.7 °C 19.3 °C 1016.8 hPa Calm   4.8 km/h 86% 0 mm 0 W/m2
03:30 21.8 °C 19.3 °C 1016.8 hPa NE 1.6 km/h 3.2 km/h 86% 0 mm 0 W/m2
03:40 21.6 °C 19.2 °C 1016.8 hPa Calm   4.8 km/h 86% 0 mm 0 W/m2
03:50 21.4 °C 19.2 °C 1016.8 hPa West 3.2 km/h 8 km/h 87% 0 mm 0 W/m2
04:00 21.4 °C 18.9 °C 1016.8 hPa Calm   8 km/h 86% 0 mm 0 W/m2
04:10 21 °C 18.9 °C 1016.8 hPa WNW 1.6 km/h 3.2 km/h 88% 0 mm 0 W/m2
04:20 20.8 °C 18.9 °C 1016.5 hPa West 3.2 km/h 11.3 km/h 89% 0 mm 0 W/m2
04:30 20.7 °C 18.8 °C 1016.8 hPa WNW 1.6 km/h 4.8 km/h 89% 0 mm 0 W/m2
04:40 20.5 °C 18.6 °C 1016.8 hPa NW 1.6 km/h 6.4 km/h 89% 0 mm 0 W/m2
04:50 20.4 °C 18.5 °C 1016.8 hPa NNW 1.6 km/h 4.8 km/h 89% 0 mm 0 W/m2
05:00 20.3 °C 18.6 °C 1016.8 hPa Calm   3.2 km/h 90% 0 mm 0 W/m2
05:10 20 °C 18.3 °C 1016.8 hPa WNW 1.6 km/h 3.2 km/h 90% 0 mm 0 W/m2
05:20 19.7 °C 18 °C 1017.2 hPa WSW 1.6 km/h 3.2 km/h 90% 0 mm 4 W/m2
05:30 19.5 °C 17.8 °C 1017.2 hPa WNW 1.6 km/h 6.4 km/h 90% 0 mm 10 W/m2
05:40 19.5 °C 17.8 °C 1017.2 hPa North 1.6 km/h 4.8 km/h 90% 0 mm 18 W/m2
05:50 19.5 °C 17.8 °C 1017.2 hPa Calm   6.4 km/h 90% 0 mm 29 W/m2
06:00 19.5 °C 17.8 °C 1017.2 hPa NNW 1.6 km/h 3.2 km/h 90% 0 mm 41 W/m2
06:10 19.6 °C 17.9 °C 1017.2 hPa West 1.6 km/h 3.2 km/h 90% 0 mm 54 W/m2
06:20 19.5 °C 18 °C 1017.5 hPa Calm   4.8 km/h 91% 0 mm 67 W/m2
06:30 19.4 °C 17.9 °C 1017.5 hPa West 1.6 km/h 6.4 km/h 91% 0 mm 102 W/m2
06:40 19.4 °C 17.7 °C 1017.5 hPa Calm   4.8 km/h 90% 0 mm 112 W/m2
06:50 19.5 °C 18 °C 1017.5 hPa NW 1.6 km/h 3.2 km/h 91% 0 mm 152 W/m2
07:00 19.7 °C 18 °C 1017.5 hPa Calm   3.2 km/h 90% 0 mm 179 W/m2
07:10 19.8 °C 18.3 °C 1017.5 hPa NNW 1.6 km/h 4.8 km/h 91% 0 mm 211 W/m2
07:20 20.1 °C 18.4 °C 1017.5 hPa WNW 1.6 km/h 4.8 km/h 90% 0 mm 246 W/m2
07:30 20.3 °C 18.6 °C 1017.5 hPa Calm   4.8 km/h 90% 0 mm 281 W/m2
07:40 20.8 °C 18.9 °C 1017.5 hPa Calm   3.2 km/h 89% 0 mm 316 W/m2
07:50 21.1 °C 19.1 °C 1017.5 hPa Calm   3.2 km/h 88% 0 mm 347 W/m2
08:00 21.6 °C 18.9 °C 1017.5 hPa WSW 3.2 km/h 4.8 km/h 85% 0 mm 386 W/m2
08:10 22.1 °C 19.2 °C 1017.5 hPa West 3.2 km/h 8 km/h 84% 0 mm 414 W/m2
08:20 22.6 °C 19.5 °C 1017.5 hPa Calm   8 km/h 83% 0 mm 447 W/m2
08:30 22.9 °C 19.9 °C 1017.5 hPa WNW 1.6 km/h 4.8 km/h 83% 0 mm 484 W/m2
08:40 23.6 °C 20.5 °C 1017.8 hPa WNW 1.6 km/h 4.8 km/h 83% 0 mm 515 W/m2
08:50 24.2 °C 20.3 °C 1017.5 hPa South 3.2 km/h 8 km/h 79% 0 mm 551 W/m2
09:00 24.9 °C 21.3 °C 1017.5 hPa SW 3.2 km/h 8 km/h 80% 0 mm 583 W/m2
09:10 26.3 °C 21.7 °C 1017.5 hPa SSE 3.2 km/h 8 km/h 76% 0 mm 609 W/m2
09:20 27.4 °C 21.9 °C 1017.5 hPa SSE 3.2 km/h 8 km/h 72% 0 mm 643 W/m2
09:30 28.4 °C 21.9 °C 1017.2 hPa SE 4.8 km/h 12.9 km/h 68% 0 mm 671 W/m2
09:40 29.2 °C 22.4 °C 1017.2 hPa East 4.8 km/h 9.7 km/h 67% 0 mm 698 W/m2
09:50 29.9 °C 22.6 °C 1017.2 hPa ESE 4.8 km/h 12.9 km/h 65% 0 mm 724 W/m2
10:00 30.6 °C 23.3 °C 1017.2 hPa ESE 4.8 km/h 11.3 km/h 65% 0 mm 749 W/m2
10:10 31.1 °C 23.4 °C 1017.2 hPa ESE 3.2 km/h 11.3 km/h 64% 0 mm 776 W/m2
10:20 31.7 °C 24 °C 1017.2 hPa ESE 3.2 km/h 11.3 km/h 64% 0 mm 798 W/m2
10:30 32.2 °C 23.9 °C 1017.2 hPa SE 4.8 km/h 11.3 km/h 62% 0 mm 819 W/m2
10:40 32.6 °C 24.3 °C 1017.2 hPa SSE 3.2 km/h 11.3 km/h 62% 0 mm 836 W/m2
10:50 33.1 °C 24 °C 1017.2 hPa South 3.2 km/h 11.3 km/h 59% 0 mm 290 W/m2
11:00 33.5 °C 22.3 °C 1016.8 hPa South 4.8 km/h 11.3 km/h 52% 0 mm 870 W/m2
11:10 33.8 °C 22.2 °C 1016.8 hPa South 3.2 km/h 12.9 km/h 51% 0 mm 880 W/m2
11:20 34 °C 21.8 °C 1016.8 hPa SW 8 km/h 11.3 km/h 49% 0 mm 873 W/m2
11:30 34.2 °C 21.9 °C 1016.8 hPa SW 4.8 km/h 11.3 km/h 49% 0 mm 908 W/m2
11:40 34.5 °C 21.9 °C 1016.5 hPa SW 3.2 km/h 11.3 km/h 48% 0 mm 917 W/m2
11:50 34.7 °C 22.1 °C 1016.5 hPa SSW 3.2 km/h 11.3 km/h 48% 0 mm 925 W/m2
12:00 35 °C 22 °C 1016.5 hPa South 4.8 km/h 9.7 km/h 47% 0 mm 931 W/m2
12:10 35.1 °C 21.4 °C 1016.5 hPa SW 4.8 km/h 9.7 km/h 45% 0 mm 935 W/m2
12:20 35.3 °C 22.2 °C 1016.1 hPa SSW 3.2 km/h 11.3 km/h 47% 0 mm 939 W/m2
12:30 35.5 °C 21.4 °C 1016.1 hPa South 9.7 km/h 12.9 km/h 44% 0 mm 940 W/m2
12:40 35.7 °C 21.9 °C 1016.1 hPa SE 8 km/h 9.7 km/h 45% 0 mm 940 W/m2
12:50 35.8 °C 21.7 °C 1016.1 hPa SSE 9.7 km/h 12.9 km/h 44% 0 mm 939 W/m2
13:00 35.9 °C 21.7 °C 1016.1 hPa SE 4.8 km/h 9.7 km/h 44% 0 mm 935 W/m2
13:10 35.9 °C 21.4 °C 1015.8 hPa SE 4.8 km/h 11.3 km/h 43% 0 mm 931 W/m2
13:20 36.1 °C 21.9 °C 1015.8 hPa South 4.8 km/h 11.3 km/h 44% 0 mm 925 W/m2
13:30 36.5 °C 21.9 °C 1015.8 hPa SSW 8 km/h 12.9 km/h 43% 0 mm 917 W/m2
13:40 36.6 °C 21.6 °C 1015.8 hPa SW 4.8 km/h 11.3 km/h 42% 0 mm 908 W/m2
13:50 36.7 °C 21.3 °C 1015.8 hPa SSW 9.7 km/h 12.9 km/h 41% 0 mm 897 W/m2
14:00 36.7 °C 21.7 °C 1015.5 hPa South 4.8 km/h 14.5 km/h 42% 0 mm 885 W/m2
14:10 36.6 °C 20.8 °C 1015.5 hPa SSE 8 km/h 16.1 km/h 40% 0 mm 871 W/m2
14:20 36.7 °C 20.5 °C 1015.5 hPa SSE 8 km/h 14.5 km/h 39% 0 mm 856 W/m2
14:30 36.8 °C 20.6 °C 1015.5 hPa SSE 9.7 km/h 16.1 km/h 39% 0 mm 840 W/m2
14:40 36.8 °C 20.6 °C 1015.5 hPa SSE 8 km/h 14.5 km/h 39% 0 mm 822 W/m2
14:50 36.6 °C 20.4 °C 1015.1 hPa SSE 9.7 km/h 14.5 km/h 39% 0 mm 804 W/m2
15:00 36.9 °C 21.1 °C 1015.1 hPa South 8 km/h 12.9 km/h 40% 0 mm 783 W/m2
15:10 37 °C 20.8 °C 1015.1 hPa South 4.8 km/h 11.3 km/h 39% 0 mm 762 W/m2
15:20 37 °C 20.8 °C 1014.8 hPa South 4.8 km/h 11.3 km/h 39% 0 mm 740 W/m2
15:30 37.3 °C 20.1 °C 1014.8 hPa SW 8 km/h 12.9 km/h 37% 0 mm 716 W/m2
15:40 37.4 °C 20.3 °C 1014.8 hPa SW 4.8 km/h 12.9 km/h 37% 0 mm 689 W/m2
15:50 37.5 °C 19.4 °C 1014.8 hPa SW 8 km/h 11.3 km/h 35% 0 mm 660 W/m2
16:00 37.5 °C 19.4 °C 1014.4 hPa SSW 8 km/h 12.9 km/h 35% 0 mm 630 W/m2
16:10 37.6 °C 19.6 °C 1014.4 hPa SW 8 km/h 11.3 km/h 35% 0 mm 598 W/m2
16:20 37.6 °C 20.4 °C 1014.4 hPa SW 3.2 km/h 9.7 km/h 37% 0 mm 569 W/m2
16:30 37.6 °C 19.6 °C 1014.4 hPa SW 8 km/h 9.7 km/h 35% 0 mm 534 W/m2
16:40 37.6 °C 20.4 °C 1014.1 hPa SW 4.8 km/h 9.7 km/h 37% 0 mm 503 W/m2
16:50 37.7 °C 21.4 °C 1014.1 hPa SSW 4.8 km/h 8 km/h 39% 0 mm 464 W/m2
17:00 37.6 °C 21.3 °C 1014.1 hPa South 3.2 km/h 9.7 km/h 39% 0 mm 434 W/m2
17:10 37.4 °C 20.7 °C 1014.1 hPa South 3.2 km/h 9.7 km/h 38% 0 mm 397 W/m2
17:20 37.1 °C 20.4 °C 1014.1 hPa SSE 4.8 km/h 9.7 km/h 38% 0 mm 363 W/m2
17:30 37.1 °C 22.1 °C 1014.1 hPa SSW 3.2 km/h 6.4 km/h 42% 0 mm 332 W/m2
17:40 37 °C 23.8 °C 1014.1 hPa SSW 3.2 km/h 4.8 km/h 47% 0 mm 301 W/m2
17:50 36.8 °C 24 °C 1014.1 hPa South 3.2 km/h 6.4 km/h 48% 0 mm 182 W/m2
18:00 36.3 °C 24.9 °C 1014.1 hPa South 1.6 km/h 3.2 km/h 52% 0 mm 97 W/m2
18:10 35.4 °C 25 °C 1014.1 hPa South 1.6 km/h 4.8 km/h 55% 0 mm 66 W/m2
18:20 34.6 °C 24.9 °C 1014.1 hPa Calm   4.8 km/h 57% 0 mm 67 W/m2
18:30 33.8 °C 24.7 °C 1014.1 hPa SW 3.2 km/h 6.4 km/h 59% 0 mm 75 W/m2
18:40 32.9 °C 23.8 °C 1014.1 hPa SSW 4.8 km/h 9.7 km/h 59% 0 mm 78 W/m2
18:50 32.4 °C 23.6 °C 1014.1 hPa South 1.6 km/h 9.7 km/h 60% 0 mm 87 W/m2
19:00 31.9 °C 23.2 °C 1014.1 hPa South 3.2 km/h 8 km/h 60% 0 mm 89 W/m2
19:10 31.3 °C 22.9 °C 1014.1 hPa South 3.2 km/h 8 km/h 61% 0 mm 75 W/m2
19:20 30.8 °C 22.2 °C 1014.1 hPa South 3.2 km/h 6.4 km/h 60% 0 mm 65 W/m2
19:30 30.4 °C 22.3 °C 1014.1 hPa South 1.6 km/h 6.4 km/h 62% 0 mm 44 W/m2
19:40 30 °C 22.2 °C 1014.1 hPa SW 3.2 km/h 4.8 km/h 63% 0 mm 26 W/m2
19:50 29.4 °C 21.7 °C 1014.1 hPa SW 3.2 km/h 4.8 km/h 63% 0 mm 10 W/m2
20:00 28.9 °C 21.2 °C 1014.1 hPa South 1.6 km/h 8 km/h 63% 0 mm 0 W/m2
20:10 28.4 °C 20.7 °C 1014.1 hPa South 3.2 km/h 8 km/h 63% 0 mm 0 W/m2
20:20 28.1 °C 20.7 °C 1014.4 hPa SSW 1.6 km/h 4.8 km/h 64% 0 mm 0 W/m2
20:30 27.8 °C 20.6 °C 1014.4 hPa Calm   4.8 km/h 65% 0 mm 0 W/m2
20:40 27.5 °C 21.3 °C 1014.8 hPa SW 3.2 km/h 3.2 km/h 69% 0 mm 0 W/m2
20:50 27.1 °C 21.6 °C 1014.8 hPa SW 3.2 km/h 8 km/h 72% 0 mm 0 W/m2
21:00 26.8 °C 21.3 °C 1014.8 hPa SW 3.2 km/h 4.8 km/h 72% 0 mm 0 W/m2
21:10 26.4 °C 21.2 °C 1014.8 hPa WSW 3.2 km/h 6.4 km/h 73% 0 mm 0 W/m2
21:20 26.1 °C 21.1 °C 1014.8 hPa WSW 1.6 km/h 8 km/h 74% 0 mm 0 W/m2
21:30 25.8 °C 21.1 °C 1014.8 hPa West 1.6 km/h 4.8 km/h 75% 0 mm 0 W/m2
21:40 25.5 °C 20.7 °C 1014.8 hPa WSW 1.6 km/h 4.8 km/h 75% 0 mm 0 W/m2
21:50 25.3 °C 20.3 °C 1014.8 hPa WSW 3.2 km/h 4.8 km/h 74% 0 mm 0 W/m2
22:00 25 °C 20.3 °C 1014.8 hPa West 1.6 km/h 6.4 km/h 75% 0 mm 0 W/m2
22:10 24.7 °C 20.4 °C 1014.8 hPa Calm   3.2 km/h 77% 0 mm 0 W/m2
22:20 24.4 °C 20.3 °C 1015.1 hPa Calm   4.8 km/h 78% 0 mm 0 W/m2
22:30 24.2 °C 19.9 °C 1015.1 hPa WSW 1.6 km/h 3.2 km/h 77% 0 mm 0 W/m2
22:40 23.8 °C 19.7 °C 1015.1 hPa WSW 1.6 km/h 3.2 km/h 78% 0 mm 0 W/m2
22:50 23.4 °C 19.3 °C 1015.1 hPa WSW 1.6 km/h 8 km/h 78% 0 mm 0 W/m2
23:00 23.2 °C 19.2 °C 1015.1 hPa Calm   4.8 km/h 78% 0 mm 0 W/m2
23:10 23.1 °C 19.3 °C 1015.1 hPa Calm   3.2 km/h 79% 0 mm 0 W/m2
23:20 23 °C 19.2 °C 1015.1 hPa WSW 1.6 km/h 4.8 km/h 79% 0 mm 0 W/m2
23:30 22.8 °C 18.8 °C 1015.1 hPa South 3.2 km/h 4.8 km/h 78% 0 mm 0 W/m2
23:40 22.6 °C 18.8 °C 1015.1 hPa Calm   3.2 km/h 79% 0 mm 0 W/m2
23:50 22.4 °C 18.8 °C 1015.1 hPa Calm   3.2 km/h 80% 0 mm 0 W/m2
Knjazevac, Serbia
Compliments of Weather Underground - 2 mb